Time;durP1;ratioP1;P1;durP2;ratioP2;P2;SDS_P1;SDS_P2;PMS_P1;PMS_P2;Temp;Humidity;BMP_temperature;BMP_pressure;BME280_temperature;BME280_humidity;BME280_pressure;Samples;Min_cycle;Max_cycle;Signal;HPM_P1;HPM_P2
2022/04/29 00:02:29;;;;;;;5.47;3.58;;;;;;;11.86;40.99;100146.66;5105927;28;20047;-68
2022/04/29 00:05:01;;;;;;;7.70;3.88;;;;;;;11.67;41.29;100131.66;5104726;28;20089;-67
2022/04/29 00:07:33;;;;;;;5.32;3.88;;;;;;;11.86;41.29;100183.84;5105618;28;20245;-67
2022/04/29 00:10:09;;;;;;;5.90;4.10;;;;;;;11.50;42.23;100137.78;5105559;28;20345;-67
2022/04/29 00:12:41;;;;;;;4.95;3.15;;;;;;;11.58;41.64;100154.22;5105836;28;20093;-67
2022/04/29 00:15:15;;;;;;;5.70;3.85;;;;;;;11.76;41.96;100182.56;5105622;28;20043;-68
2022/04/29 00:17:47;;;;;;;4.70;3.58;;;;;;;11.78;41.81;100187.78;5105657;28;20084;-66
2022/04/29 00:20:20;;;;;;;5.32;3.47;;;;;;;11.45;41.82;100145.09;5104817;28;20086;-67
2022/04/29 00:22:52;;;;;;;6.25;3.65;;;;;;;11.60;42.15;100186.84;5104713;28;20044;-67
2022/04/29 00:25:26;;;;;;;4.78;3.30;;;;;;;11.63;42.05;100188.50;5105039;28;20044;-67
2022/04/29 00:27:58;;;;;;;4.03;3.25;;;;;;;11.66;41.93;100183.06;5105829;28;20089;-67
2022/04/29 00:30:30;;;;;;;6.35;3.80;;;;;;;11.62;42.17;100184.13;5105807;28;20047;-66
2022/04/29 00:33:03;;;;;;;6.70;4.00;;;;;;;11.62;42.35;100173.50;5105491;28;20048;-68
2022/04/29 00:35:36;;;;;;;5.55;4.05;;;;;;;10.80;42.31;100091.44;5106160;28;20238;-67
2022/04/29 00:38:10;;;;;;;4.75;3.50;;;;;;;11.55;42.11;100170.28;5109564;28;20062;-66
2022/04/29 00:40:45;;;;;;;5.75;3.60;;;;;;;11.46;42.61;100171.56;5110261;28;20062;-67
2022/04/29 00:43:17;;;;;;;6.68;4.18;;;;;;;11.45;42.71;100176.94;5109570;28;20284;-67
2022/04/29 00:45:50;;;;;;;5.30;3.90;;;;;;;11.45;42.57;100171.63;5109791;28;20039;-66
2022/04/29 00:48:23;;;;;;;6.40;4.05;;;;;;;11.46;42.53;100176.00;5109784;28;20044;-66
2022/04/29 00:50:55;;;;;;;6.05;3.50;;;;;;;11.42;42.93;100175.28;5109396;28;20046;-68
2022/04/29 00:53:28;;;;;;;5.50;3.88;;;;;;;11.31;43.31;100179.34;5109354;28;20086;-67
2022/04/29 00:56:03;;;;;;;6.82;3.85;;;;;;;10.75;43.39;100090.75;5109302;28;20189;-67
2022/04/29 00:58:39;;;;;;;6.32;3.38;;;;;;;11.32;43.25;100173.97;5109271;28;20085;-67
2022/04/29 01:01:12;;;;;;;5.90;3.75;;;;;;;7.98;43.47;99650.91;5109401;28;20043;-67
2022/04/29 01:03:47;;;;;;;5.07;3.45;;;;;;;11.26;43.54;100176.06;5109148;28;20246;-67
2022/04/29 01:06:19;;;;;;;5.55;4.03;;;;;;;11.23;43.33;100166.44;5109179;28;20040;-67
2022/04/29 01:08:51;;;;;;;4.65;3.85;;;;;;;11.21;43.21;100166.50;5109090;28;20085;-67
2022/04/29 01:11:26;;;;;;;4.15;3.25;;;;;;;11.24;43.12;100157.53;5109314;28;20043;-67
2022/04/29 01:13:55;;;;;;;4.72;3.60;;;;;;;11.21;42.85;100163.84;5108476;28;20081;-67
2022/04/29 01:16:24;;;;;;;4.97;3.30;;;;;;;10.83;43.13;100101.91;5109158;28;20293;-67
2022/04/29 01:18:54;;;;;;;5.35;3.67;;;;;;;10.76;43.33;100099.56;5108067;28;20343;-67
2022/04/29 01:21:26;;;;;;;5.55;3.60;;;;;;;11.05;43.25;100159.28;5125605;28;20036;-67
2022/04/29 01:23:56;;;;;;;4.75;3.20;;;;;;;10.91;43.65;100165.22;5108955;28;20336;-67
2022/04/29 01:26:24;;;;;;;4.85;2.92;;;;;;;10.93;43.60;100165.16;5108664;28;20039;-67
2022/04/29 01:28:57;;;;;;;4.45;3.30;;;;;;;10.93;43.50;100154.53;5108573;28;20044;-67
2022/04/29 01:31:27;;;;;;;6.40;3.92;;;;;;;10.32;43.57;100075.84;5108328;28;20231;-67
2022/04/29 01:33:55;;;;;;;5.80;4.00;;;;;;;10.31;43.60;100082.06;5107945;28;20109;-67
2022/04/29 01:36:25;;;;;;;4.00;3.15;;;;;;;9.52;43.60;99930.06;5107584;28;20060;-67
2022/04/29 01:38:57;;;;;;;5.03;3.38;;;;;;;10.92;43.90;100158.97;5108701;28;20103;-67
2022/04/29 01:41:25;;;;;;;4.65;3.28;;;;;;;10.95;43.83;100158.84;5108259;28;20040;-67
2022/04/29 01:43:56;;;;;;;4.80;3.45;;;;;;;10.90;43.73;100158.19;5108621;28;20028;-67
2022/04/29 01:46:25;;;;;;;5.97;3.67;;;;;;;10.60;43.75;100108.19;5108376;28;20039;-67
2022/04/29 01:48:55;;;;;;;6.22;4.28;;;;;;;10.86;43.77;100151.28;5108488;28;20036;-67
2022/04/29 01:51:26;;;;;;;6.43;4.28;;;;;;;10.84;43.80;100154.00;5108212;28;20039;-67
2022/04/29 01:53:57;;;;;;;6.47;3.65;;;;;;;10.77;44.25;100154.31;5108140;28;20040;-67
2022/04/29 01:56:33;;;;;;;4.85;3.40;;;;;;;10.27;44.29;100097.22;5108315;28;20112;-67
2022/04/29 01:59:01;;;;;;;4.50;3.13;;;;;;;10.56;44.58;100150.78;5108121;28;20119;-67
2022/04/29 02:01:31;;;;;;;6.60;3.72;;;;;;;10.54;44.52;100148.19;5108204;28;20052;-67
2022/04/29 02:04:01;;;;;;;5.07;4.22;;;;;;;10.49;44.74;100142.25;5108154;28;20040;-67
2022/04/29 02:06:32;;;;;;;5.85;3.20;;;;;;;10.44;44.67;100148.66;5108489;28;20099;-67
2022/04/29 02:09:03;;;;;;;7.05;3.97;;;;;;;10.48;44.88;100143.16;5107093;28;20115;-67
2022/04/29 02:11:31;;;;;;;6.90;3.85;;;;;;;10.47;44.71;100143.22;5108031;28;20048;-67
2022/04/29 02:14:02;;;;;;;7.43;3.65;;;;;;;9.04;44.82;99922.28;5108182;28;20060;-67
2022/04/29 02:16:32;;;;;;;5.68;3.17;;;;;;;10.46;45.14;100138.84;5108025;28;20043;-68
2022/04/29 02:19:02;;;;;;;5.05;3.97;;;;;;;10.43;45.15;100146.94;5107716;28;20056;-68
2022/04/29 02:21:32;;;;;;;5.15;3.78;;;;;;;9.97;45.13;100071.16;5107873;28;20040;-68
2022/04/29 02:24:04;;;;;;;6.38;4.07;;;;;;;10.33;45.16;100135.84;5108061;28;20081;-68
2022/04/29 02:26:32;;;;;;;6.30;4.43;;;;;;;10.29;45.19;100134.25;5107814;28;20078;-68
2022/04/29 02:29:03;;;;;;;5.90;3.97;;;;;;;10.23;45.28;100138.03;5107853;28;20086;-68
2022/04/29 02:31:32;;;;;;;5.45;4.05;;;;;;;10.23;45.82;100142.47;5107785;28;20036;-68
2022/04/29 02:34:03;;;;;;;4.55;3.50;;;;;;;9.35;45.78;100071.88;5107646;28;20044;-68
2022/04/29 02:36:33;;;;;;;4.80;3.67;;;;;;;10.19;45.46;100133.78;5107376;28;20074;-68
2022/04/29 02:39:06;;;;;;;6.32;3.63;;;;;;;10.19;45.96;100139.06;5107327;28;20067;-68
2022/04/29 02:41:33;;;;;;;5.80;4.22;;;;;;;10.14;46.00;100135.75;5107056;28;20107;-68
2022/04/29 02:44:03;;;;;;;8.30;4.13;;;;;;;10.09;46.29;100153.63;5107165;28;20086;-68
2022/04/29 02:46:33;;;;;;;5.22;4.00;;;;;;;9.28;46.19;100026.28;5107798;28;20028;-68
2022/04/29 02:49:03;;;;;;;4.60;3.72;;;;;;;10.05;46.60;100144.06;5107191;28;20046;-68
2022/04/29 02:51:33;;;;;;;4.78;3.63;;;;;;;10.12;45.89;100137.59;5107493;28;20028;-68
2022/04/29 02:54:05;;;;;;;4.82;3.10;;;;;;;10.14;46.12;100145.50;5107146;28;20046;-68
2022/04/29 02:56:34;;;;;;;4.30;3.60;;;;;;;10.17;45.99;100145.38;5107363;28;20039;-68
2022/04/29 02:59:04;;;;;;;4.45;3.45;;;;;;;10.25;45.91;100143.25;5106381;28;20040;-67
2022/04/29 03:01:34;;;;;;;4.97;3.88;;;;;;;10.24;45.77;100134.44;5106418;28;20044;-67
2022/04/29 03:04:04;;;;;;;6.15;4.20;;;;;;;10.22;46.08;100138.09;5105977;28;20047;-67
2022/04/29 03:06:34;;;;;;;5.70;4.65;;;;;;;10.20;45.95;100135.50;5105924;28;20107;-69
2022/04/29 03:09:06;;;;;;;5.07;3.95;;;;;;;10.18;46.42;100134.72;5107076;28;20288;-68
2022/04/29 03:11:34;;;;;;;6.25;4.28;;;;;;;9.93;45.93;100081.03;5106889;28;20044;-68
2022/04/29 03:14:05;;;;;;;4.85;3.80;;;;;;;10.22;46.09;100132.78;5106624;28;20043;-68
2022/04/29 03:16:35;;;;;;;6.07;3.80;;;;;;;9.27;46.16;99972.50;5105794;28;20040;-68
2022/04/29 03:19:05;;;;;;;5.53;3.97;;;;;;;10.16;46.46;100133.91;5107016;28;20062;-68
2022/04/29 03:21:35;;;;;;;7.00;4.15;;;;;;;10.16;46.15;100133.91;5106510;28;20093;-68
2022/04/29 03:24:07;;;;;;;6.30;4.35;;;;;;;10.07;47.16;100139.56;5106352;28;20064;-67
2022/04/29 03:26:37;;;;;;;5.32;4.03;;;;;;;10.08;46.48;100138.66;5106633;28;20056;-68
2022/04/29 03:29:05;;;;;;;6.43;3.80;;;;;;;10.10;46.52;100162.44;5105516;28;20111;-68
2022/04/29 03:31:35;;;;;;;6.70;4.53;;;;;;;10.06;46.85;100142.28;5106649;28;20040;-69
2022/04/29 03:34:06;;;;;;;5.07;3.78;;;;;;;10.07;46.52;100147.53;5105771;28;20040;-68
2022/04/29 03:36:36;;;;;;;5.47;3.67;;;;;;;10.08;46.47;100132.50;5106127;28;20048;-68
2022/04/29 03:39:07;;;;;;;5.13;4.25;;;;;;;9.81;46.63;100094.75;5106161;28;20066;-69
2022/04/29 03:41:36;;;;;;;5.50;4.47;;;;;;;10.07;46.85;100138.72;5105559;28;20063;-67
2022/04/29 03:44:06;;;;;;;5.70;3.75;;;;;;;10.04;46.72;100149.44;5106503;28;20036;-67
2022/04/29 03:46:36;;;;;;;6.43;3.95;;;;;;;10.00;46.90;100145.19;5106082;28;20035;-68
2022/04/29 03:51:56;;;;;;;7.45;4.18;;;;;;;9.71;46.93;100101.34;5106317;28;20082;-68
2022/04/29 03:54:30;;;;;;;4.75;3.85;;;;;;;9.94;47.16;100148.94;5106266;28;20090;-68
2022/04/29 03:57:02;;;;;;;5.30;4.25;;;;;;;9.56;47.35;100090.44;5106250;28;20086;-68
2022/04/29 03:59:34;;;;;;;5.15;4.20;;;;;;;9.62;47.45;100099.91;5105962;28;20040;-68
2022/04/29 04:02:06;;;;;;;5.43;4.38;;;;;;;9.93;47.30;100145.44;5106186;28;20140;-68
2022/04/29 04:04:39;;;;;;;5.95;3.78;;;;;;;9.90;47.52;100152.63;5105824;28;20048;-68
2022/04/29 04:07:11;;;;;;;6.63;4.30;;;;;;;9.92;47.41;100156.09;5106109;28;20040;-68
2022/04/29 04:09:44;;;;;;;5.25;3.80;;;;;;;9.97;47.39;100151.47;5105263;28;20040;-67
2022/04/29 04:12:16;;;;;;;6.15;4.20;;;;;;;9.99;47.21;100148.75;5105411;28;20058;-68
2022/04/29 04:14:49;;;;;;;7.10;4.40;;;;;;;9.98;47.26;100149.69;5105768;28;20044;-67
2022/04/29 04:17:21;;;;;;;6.22;4.45;;;;;;;9.97;47.80;100155.91;5105937;28;20044;-68
2022/04/29 04:19:53;;;;;;;5.82;4.10;;;;;;;9.94;47.81;100156.88;5105958;28;20345;-67
2022/04/29 04:22:26;;;;;;;5.10;4.03;;;;;;;9.94;48.17;100147.16;5105588;28;20040;-68
2022/04/29 04:25:00;;;;;;;5.57;4.75;;;;;;;9.66;48.22;100108.59;5105537;28;20039;-68
2022/04/29 04:27:33;;;;;;;6.15;4.25;;;;;;;9.69;47.71;100103.19;5105852;28;20040;-68
2022/04/29 04:30:07;;;;;;;7.40;5.03;;;;;;;10.01;47.96;100154.84;5105552;28;20040;-68
2022/04/29 04:32:40;;;;;;;6.82;4.50;;;;;;;10.01;48.30;100166.31;5105522;28;20181;-68
2022/04/29 04:35:12;;;;;;;5.07;4.40;;;;;;;10.03;48.04;100156.53;5105417;28;20040;-68
2022/04/29 04:37:44;;;;;;;6.53;3.97;;;;;;;10.05;48.23;100157.31;5105128;28;20113;-68
2022/04/29 04:40:18;;;;;;;9.23;5.72;;;;;;;9.77;48.46;100109.91;5105405;28;20040;-67
2022/04/29 04:42:50;;;;;;;6.60;5.45;;;;;;;10.09;48.24;100160.72;5105292;28;20097;-68
2022/04/29 04:45:23;;;;;;;6.05;5.05;;;;;;;10.14;48.39;100161.38;5105325;28;20086;-68
2022/04/29 04:47:55;;;;;;;6.30;4.65;;;;;;;10.17;48.02;100170.06;5105332;28;20124;-68
2022/04/29 04:50:27;;;;;;;6.88;5.03;;;;;;;10.20;48.04;100169.06;5104689;28;20040;-68
2022/04/29 04:52:59;;;;;;;6.72;5.07;;;;;;;10.21;47.77;100174.31;5104655;28;20227;-67
2022/04/29 04:55:32;;;;;;;5.20;4.70;;;;;;;10.26;47.80;100159.09;5105202;28;20040;-68
2022/04/29 04:58:05;;;;;;;6.55;4.65;;;;;;;10.30;47.80;100170.44;5105294;28;20040;-68
2022/04/29 05:00:37;;;;;;;7.75;5.00;;;;;;;10.29;47.68;100171.34;5104754;28;20239;-68
2022/04/29 05:03:09;;;;;;;7.63;4.70;;;;;;;10.36;47.56;100172.81;5105434;28;20227;-68
2022/04/29 05:05:42;;;;;;;5.95;3.88;;;;;;;10.39;47.69;100169.19;5104465;28;20097;-68
2022/04/29 05:08:14;;;;;;;8.43;4.60;;;;;;;9.94;47.52;100080.97;5105181;28;20044;-68
2022/04/29 05:10:49;;;;;;;5.45;4.60;;;;;;;10.53;48.00;100169.47;5105125;28;20040;-68
2022/04/29 05:13:20;;;;;;;;;;;;;;;10.51;49.97;100166.03;5105117;28;20293;-68
2022/04/29 05:15:53;;;;;;;7.07;4.50;;;;;;;10.56;47.61;100166.69;5105074;28;20122;-68
2022/04/29 05:18:25;;;;;;;4.95;4.00;;;;;;;10.36;47.27;100116.31;5121464;28;20039;-68
2022/04/29 05:20:57;;;;;;;5.72;3.85;;;;;;;10.45;47.34;100127.38;5104240;28;20041;-68
2022/04/29 05:23:29;;;;;;;6.03;4.32;;;;;;;10.79;47.34;100176.34;5108527;28;20039;-68
2022/04/29 05:26:03;;;;;;;6.07;5.20;;;;;;;10.57;47.79;100128.66;5108926;28;20174;-68
2022/04/29 05:28:35;;;;;;;7.75;5.00;;;;;;;10.68;47.06;100144.09;5108080;28;20093;-68
2022/04/29 05:31:07;;;;;;;6.13;5.22;;;;;;;10.72;47.05;100143.03;5108659;28;20085;-68
2022/04/29 05:33:40;;;;;;;6.10;5.10;;;;;;;11.04;47.03;100178.78;5108468;28;20250;-68
2022/04/29 05:36:13;;;;;;;5.30;4.15;;;;;;;11.09;46.79;100176.81;5108588;28;20044;-69
2022/04/29 05:44:29;;;;;;;6.22;4.97;;;;;;;11.30;46.39;100183.81;5107413;28;20044;-69
2022/04/29 05:47:01;;;;;;;6.35;4.90;;;;;;;10.67;46.29;100060.19;5107612;28;20055;-68
2022/04/29 05:49:33;;;;;;;7.38;6.20;;;;;;;11.43;46.75;100181.47;5107496;28;20097;-68
2022/04/29 05:52:07;;;;;;;7.72;6.38;;;;;;;10.20;46.59;99971.25;5108434;28;20081;-69
2022/04/29 05:54:40;;;;;;;7.88;5.90;;;;;;;10.98;46.13;100089.75;5108184;28;20044;-68
2022/04/29 05:57:13;;;;;;;8.40;5.57;;;;;;;11.47;46.15;100164.47;5107344;28;20040;-69
2022/04/29 05:59:45;;;;;;;5.85;5.20;;;;;;;11.63;46.20;100186.72;5108022;28;20036;-69
2022/04/29 06:02:18;;;;;;;5.50;4.43;;;;;;;11.70;45.98;100182.84;5107512;28;20043;-68
2022/04/29 06:04:50;;;;;;;8.60;5.07;;;;;;;11.76;45.56;100185.22;5108253;28;20048;-68
2022/04/29 06:07:22;;;;;;;6.00;5.28;;;;;;;11.84;45.22;100180.41;5107850;28;20048;-69
2022/04/29 06:09:54;;;;;;;6.95;4.97;;;;;;;12.01;45.00;100240.72;5108012;28;20040;-69
2022/04/29 06:12:28;;;;;;;6.25;5.53;;;;;;;12.27;44.26;100170.41;5108055;28;20284;-69
2022/04/29 06:15:00;;;;;;;6.77;4.93;;;;;;;14.27;40.67;100130.41;5107020;28;20043;-68
2022/04/29 06:17:32;;;;;;;5.47;4.13;;;;;;;18.42;34.19;100107.09;5107543;28;20048;-68
2022/04/29 06:20:06;;;;;;;12.65;5.22;;;;;;;21.24;29.70;100102.91;5107560;28;20040;-69
2022/04/29 06:22:43;;;;;;;6.22;4.30;;;;;;;23.16;27.70;100131.19;5106915;28;20036;-68
2022/04/29 06:25:18;;;;;;;5.75;4.00;;;;;;;23.79;26.10;100042.09;5107467;28;20052;-69
2022/04/29 06:27:51;;;;;;;6.57;4.60;;;;;;;24.86;25.49;100121.53;5107707;28;20040;-69
2022/04/29 06:30:24;;;;;;;7.57;5.20;;;;;;;24.20;25.26;100005.47;5107737;28;20044;-66
2022/04/29 06:32:56;;;;;;;4.85;3.92;;;;;;;24.15;25.98;100139.63;5107378;28;20042;-68
2022/04/29 06:35:29;;;;;;;6.40;4.05;;;;;;;23.32;27.65;100136.88;5107058;28;20040;-67
2022/04/29 06:38:01;;;;;;;8.88;4.70;;;;;;;22.12;29.02;100113.00;5107090;28;20048;-67
2022/04/29 06:40:33;;;;;;;8.27;5.10;;;;;;;21.24;30.40;100156.81;5107437;28;20039;-68
2022/04/29 06:43:07;;;;;;;8.30;5.03;;;;;;;20.64;31.93;100155.66;5107149;28;20036;-68
2022/04/29 06:45:40;;;;;;;5.05;3.85;;;;;;;20.22;33.01;100164.59;5106166;28;20081;-67
2022/04/29 06:48:12;;;;;;;6.68;5.25;;;;;;;19.74;34.13;100132.59;5107258;28;20043;-67
2022/04/29 06:50:45;;;;;;;6.88;4.38;;;;;;;19.67;34.22;100174.41;5106835;28;20354;-68
2022/04/29 06:53:17;;;;;;;5.65;4.72;;;;;;;19.36;34.67;100173.28;5106048;28;20048;-68
2022/04/29 06:55:49;;;;;;;5.63;3.90;;;;;;;19.08;35.03;100167.38;5107085;28;20044;-68
2022/04/29 06:58:23;;;;;;;5.13;3.85;;;;;;;18.69;34.05;100173.09;5106805;28;20086;-68
2022/04/29 07:00:55;;;;;;;10.60;7.38;;;;;;;18.41;36.13;100175.16;5107023;28;20285;-68
2022/04/29 07:03:27;;;;;;;9.07;5.75;;;;;;;18.27;35.75;100180.69;5106667;28;20040;-68
2022/04/29 07:06:01;;;;;;;6.03;4.63;;;;;;;17.87;36.13;100188.97;5106064;28;20036;-68
2022/04/29 07:08:33;;;;;;;7.30;4.40;;;;;;;17.31;36.46;100096.50;5105892;28;20039;-68
2022/04/29 07:11:05;;;;;;;6.82;4.85;;;;;;;17.81;36.42;100189.41;5106626;28;20410;-68
2022/04/29 07:13:41;;;;;;;6.50;4.10;;;;;;;17.85;35.80;100188.22;5106711;28;20044;-67
2022/04/29 07:16:13;;;;;;;6.53;4.60;;;;;;;17.93;36.80;100187.66;5106344;28;20044;-67
2022/04/29 07:18:45;;;;;;;6.40;4.90;;;;;;;18.02;36.17;100184.31;5106702;28;20044;-67
2022/04/29 07:21:18;;;;;;;6.50;4.53;;;;;;;18.03;35.96;100180.66;5106670;28;20247;-67
2022/04/29 07:23:50;;;;;;;6.47;4.20;;;;;;;18.06;36.32;100179.59;5105427;28;20200;-67
2022/04/29 07:26:22;;;;;;;8.25;4.93;;;;;;;18.05;36.29;100186.78;5105984;28;20051;-68
2022/04/29 07:28:56;;;;;;;7.53;5.35;;;;;;;18.20;35.60;100177.59;5106148;28;20040;-67
2022/04/29 07:31:28;;;;;;;8.15;4.53;;;;;;;18.35;35.21;100174.75;5106273;28;20334;-68
2022/04/29 07:34:00;;;;;;;7.25;5.22;;;;;;;17.85;35.51;100089.00;5106398;28;20039;-68
2022/04/29 07:42:10;;;;;;;7.47;4.68;;;;;;;18.50;34.57;100174.47;5105278;28;20044;-69
2022/04/29 07:44:43;;;;;;;6.90;4.97;;;;;;;18.37;34.77;100136.09;5105967;28;20243;-69
2022/04/29 07:47:15;;;;;;;6.40;5.57;;;;;;;18.71;34.64;100161.28;5106263;28;20044;-69
2022/04/29 07:49:48;;;;;;;7.45;5.88;;;;;;;18.74;34.17;100176.31;5106198;28;20044;-69
2022/04/29 07:52:20;;;;;;;6.95;4.82;;;;;;;18.67;34.17;100167.84;5105912;28;20349;-68
2022/04/29 07:54:52;;;;;;;11.75;5.55;;;;;;;18.30;34.36;100108.00;5105862;28;20048;-69
2022/04/29 07:57:24;;;;;;;10.30;6.32;;;;;;;18.65;33.12;100169.81;5106029;28;20097;-68
2022/04/29 07:59:58;;;;;;;7.90;6.00;;;;;;;18.65;33.15;100172.47;5105979;28;20040;-69
2022/04/29 08:02:30;;;;;;;8.20;4.55;;;;;;;18.61;33.19;100176.38;5105712;28;20085;-69
2022/04/29 08:05:02;;;;;;;8.18;5.07;;;;;;;18.80;33.45;100171.31;5105598;28;20066;-68
2022/04/29 08:07:35;;;;;;;5.93;4.07;;;;;;;18.92;32.96;100172.22;5104869;28;20181;-69
2022/04/29 08:10:09;;;;;;;6.20;4.90;;;;;;;18.07;33.33;100074.00;5104505;28;20040;-69
2022/04/29 08:12:41;;;;;;;5.75;4.10;;;;;;;19.00;33.05;100168.94;5105191;28;20044;-69
2022/04/29 08:15:15;;;;;;;6.07;4.05;;;;;;;18.99;32.05;100169.91;5104728;28;20040;-69
2022/04/29 08:17:49;;;;;;;6.18;4.22;;;;;;;19.08;32.93;100167.38;5105724;28;20311;-69
2022/04/29 08:20:21;;;;;;;6.70;4.40;;;;;;;19.19;32.31;100163.84;5104508;28;20090;-67
2022/04/29 08:22:53;;;;;;;6.07;3.97;;;;;;;19.05;31.61;100164.91;5105385;28;20036;-68
2022/04/29 08:25:26;;;;;;;6.40;4.25;;;;;;;19.12;32.51;100165.28;5105553;28;20089;-69
2022/04/29 08:28:00;;;;;;;6.13;4.05;;;;;;;19.11;31.73;100164.44;5105702;28;20036;-69
2022/04/29 08:30:34;;;;;;;4.72;3.58;;;;;;;19.19;31.01;100166.53;5105428;28;20040;-69
2022/04/29 08:33:06;;;;;;;6.78;3.72;;;;;;;18.91;31.63;100114.09;5105294;28;20093;-69
2022/04/29 08:35:39;;;;;;;9.90;5.32;;;;;;;19.35;31.71;100166.19;5105422;28;20044;-68
2022/04/29 08:38:12;;;;;;;10.02;5.03;;;;;;;19.64;31.47;100155.84;5104893;28;20239;-69
2022/04/29 08:40:46;;;;;;;6.57;4.20;;;;;;;19.86;30.77;100150.47;5105383;28;20043;-69
2022/04/29 08:43:21;;;;;;;6.72;4.18;;;;;;;20.01;30.25;100151.91;5104312;28;20040;-69
2022/04/29 08:46:07;;;;;;;11.50;4.18;;;;;;;20.11;30.50;100155.56;5105078;28;20048;-69
2022/04/29 08:48:41;;;;;;;7.43;5.07;;;;;;;19.68;30.01;100115.13;5105160;28;20085;-69
2022/04/29 08:51:14;;;;;;;6.43;4.43;;;;;;;19.01;31.16;99987.97;5104260;28;20058;-69
2022/04/29 08:53:48;;;;;;;6.87;4.53;;;;;;;20.09;31.60;100141.38;5105309;28;20090;-69
2022/04/29 08:59:10;;;;;;;7.05;5.53;;;;;;;20.48;30.46;100136.38;5109036;28;20044;-69
2022/04/29 09:01:44;;;;;;;7.78;5.20;;;;;;;20.61;30.40;100133.50;5109373;28;20048;-68
2022/04/29 09:04:18;;;;;;;7.57;4.93;;;;;;;20.08;30.74;100034.72;5109401;28;20039;-69
2022/04/29 09:06:51;;;;;;;5.33;4.13;;;;;;;20.14;30.67;100015.38;5108850;28;20040;-69
2022/04/29 09:09:22;;;;;;;6.15;4.05;;;;;;;20.91;30.65;100128.19;5109387;28;20170;-69
2022/04/29 09:11:50;;;;;;;7.95;4.07;;;;;;;20.93;29.71;100118.16;5109010;28;20036;-69
2022/04/29 09:14:21;;;;;;;6.65;4.20;;;;;;;20.92;29.93;100118.28;5109458;28;20036;-69
2022/04/29 09:16:53;;;;;;;6.75;4.10;;;;;;;20.74;29.97;100081.16;5108985;28;20070;-69
2022/04/29 09:19:31;;;;;;;4.95;3.60;;;;;;;21.06;28.11;100118.81;5108700;28;20068;-69
2022/04/29 09:22:06;;;;;;;6.72;4.68;;;;;;;21.15;29.57;100114.47;5108784;28;20105;-69
2022/04/29 09:24:38;;;;;;;7.07;4.00;;;;;;;21.35;29.64;100105.50;5108523;28;20127;-68
2022/04/29 09:27:11;;;;;;;4.80;3.80;;;;;;;21.50;29.83;100107.81;5107576;28;20064;-68
2022/04/29 09:29:43;;;;;;;6.95;4.10;;;;;;;21.54;29.55;100103.88;5108767;28;20044;-69
2022/04/29 09:32:18;;;;;;;5.65;3.63;;;;;;;21.42;29.18;100071.59;5108570;28;20036;-69
2022/04/29 09:34:53;;;;;;;6.18;4.53;;;;;;;21.40;29.30;100062.81;5108647;28;20066;-69
2022/04/29 09:37:27;;;;;;;8.27;4.90;;;;;;;21.51;28.88;100094.22;5108184;28;20067;-69
2022/04/29 09:40:00;;;;;;;6.70;4.93;;;;;;;21.57;29.33;100095.50;5108436;28;20044;-69
2022/04/29 09:42:38;;;;;;;4.82;3.95;;;;;;;21.59;27.75;100090.81;5107922;28;20089;-69
2022/04/29 09:45:14;;;;;;;8.43;4.55;;;;;;;21.48;28.38;100093.63;5108139;28;20036;-69
2022/04/29 09:47:54;;;;;;;5.65;4.32;;;;;;;21.41;28.08;100083.38;5108230;28;20044;-68
2022/04/29 09:50:45;;;;;;;7.28;4.70;;;;;;;20.56;27.78;99921.16;5108315;28;20044;-68
2022/04/29 09:53:20;;;;;;;7.00;5.32;;;;;;;21.43;28.47;100083.25;5106928;28;20169;-68
2022/04/29 09:56:05;;;;;;;5.45;4.40;;;;;;;21.38;27.44;100083.66;5107561;28;20296;-68
2022/04/29 09:58:38;;;;;;;5.00;4.30;;;;;;;21.03;29.29;100142.50;5107863;28;20097;-69
2022/04/29 10:01:12;;;;;;;4.28;3.53;;;;;;;21.00;29.44;100076.22;5107720;28;20043;-69
2022/04/29 10:03:46;;;;;;;8.35;4.28;;;;;;;21.12;28.68;100079.72;5106992;28;20296;-69
2022/04/29 10:06:21;;;;;;;5.82;4.85;;;;;;;21.40;29.15;100072.75;5107766;28;20101;-69
2022/04/29 10:08:54;;;;;;;5.70;4.65;;;;;;;21.73;29.08;100071.56;5106813;28;20142;-68
2022/04/29 10:11:28;;;;;;;7.18;4.97;;;;;;;21.50;28.78;100068.22;5107713;28;20040;-69
2022/04/29 10:14:03;;;;;;;7.40;5.28;;;;;;;21.38;29.02;100078.25;5107335;28;20342;-69
2022/04/29 10:16:36;;;;;;;5.65;4.25;;;;;;;21.34;29.05;100066.03;5107276;28;20089;-69
2022/04/29 10:22:03;;;;;;;5.45;3.72;;;;;;;20.92;29.20;100067.09;5107250;28;20085;-69
2022/04/29 10:24:36;;;;;;;6.80;3.97;;;;;;;21.19;29.24;100063.84;5107261;28;20089;-69
2022/04/29 10:27:08;;;;;;;8.85;4.65;;;;;;;21.32;28.85;100059.09;5106723;28;20043;-68
2022/04/29 10:29:41;;;;;;;6.22;4.60;;;;;;;21.13;29.04;100049.06;5106733;28;20353;-68
2022/04/29 10:32:13;;;;;;;6.03;5.13;;;;;;;21.01;29.49;100053.66;5123388;28;20040;-68
2022/04/29 10:34:49;;;;;;;5.30;3.88;;;;;;;21.13;28.36;100041.84;5107034;28;20062;-67
2022/04/29 10:37:32;;;;;;;7.55;3.83;;;;;;;20.88;27.87;99964.13;5106658;28;20161;-67
2022/04/29 10:40:10;;;;;;;6.15;4.20;;;;;;;21.20;27.90;99982.00;5106933;28;20123;-68
2022/04/29 10:43:06;;;;;;;5.50;4.03;;;;;;;21.66;26.44;100028.09;5106788;28;20044;-68
2022/04/29 10:46:15;;;;;;;6.50;4.22;;;;;;;21.52;26.80;100030.34;5106676;28;20090;-68
2022/04/29 10:48:49;;;;;;;5.13;4.38;;;;;;;21.62;28.21;100025.81;5106744;28;20306;-68
2022/04/29 10:51:46;;;;;;;6.87;4.73;;;;;;;21.67;27.38;100026.25;5105695;28;20044;-68
2022/04/29 10:54:45;;;;;;;7.72;5.65;;;;;;;21.87;26.98;100029.88;5106551;28;20035;-68
2022/04/29 10:57:18;;;;;;;6.00;4.95;;;;;;;21.98;27.67;100017.09;5106355;28;20044;-68
2022/04/29 10:59:52;;;;;;;6.32;4.65;;;;;;;22.14;27.74;100013.81;5106476;28;20081;-68
2022/04/29 11:02:25;;;;;;;;;;;;;;;22.09;26.72;100010.69;5106918;28;20242;-68
2022/04/29 11:04:58;;;;;;;6.75;6.00;;;;;;;22.07;27.54;100016.25;5105652;28;19919;-67
2022/04/29 11:07:43;;;;;;;12.27;5.82;;;;;;;21.97;27.22;100012.69;5106341;28;20048;-68
2022/04/29 11:10:19;;;;;;;6.53;5.68;;;;;;;21.81;27.71;99996.19;5106449;28;20100;-68
2022/04/29 11:12:57;;;;;;;6.93;5.43;;;;;;;21.78;27.18;99993.75;5106237;28;20040;-68
2022/04/29 11:15:45;;;;;;;8.98;6.15;;;;;;;21.88;27.09;100008.13;5105724;28;20036;-67
2022/04/29 11:18:23;;;;;;;6.50;5.80;;;;;;;21.85;27.82;99999.47;5106215;28;20040;-68
2022/04/29 11:20:57;;;;;;;8.43;6.22;;;;;;;21.89;27.47;99990.94;5105555;28;20040;-68
2022/04/29 11:26:22;;;;;;;5.68;4.60;;;;;;;21.91;27.84;99980.03;5106253;28;20064;-67
2022/04/29 11:28:54;;;;;;;9.75;7.60;;;;;;;;;;5106142;28;20173;-68
2022/04/29 11:31:34;;;;;;;6.80;5.40;;;;;;;22.13;26.94;99977.03;5106188;28;20040;-68
2022/04/29 11:34:08;;;;;;;7.45;5.93;;;;;;;21.56;27.37;99905.84;5105556;28;20040;-68
2022/04/29 11:36:41;;;;;;;6.28;5.35;;;;;;;22.32;27.10;99970.75;5105977;28;20072;-68
2022/04/29 11:39:20;;;;;;;9.40;6.80;;;;;;;22.13;26.29;99971.63;5106125;28;20284;-68
2022/04/29 11:41:54;;;;;;;7.78;5.38;;;;;;;21.85;27.49;99978.75;5106098;28;20047;-68
2022/04/29 11:44:35;;;;;;;11.45;5.40;;;;;;;21.83;26.76;99977.19;5105931;28;20040;-67
2022/04/29 11:47:07;;;;;;;6.13;4.75;;;;;;;21.60;27.76;99968.47;5105643;28;20250;-68
2022/04/29 11:49:40;;;;;;;6.63;5.68;;;;;;;21.60;27.60;99963.06;5105699;28;20066;-68
2022/04/29 11:52:19;;;;;;;8.02;5.88;;;;;;;21.39;27.53;99928.13;5105713;28;20246;-68
2022/04/29 11:54:54;;;;;;;6.65;5.40;;;;;;;21.31;27.18;99933.38;5105798;28;20044;-68
2022/04/29 11:57:28;;;;;;;8.32;6.22;;;;;;;21.21;27.31;99963.00;5105631;28;20043;-68
2022/04/29 12:00:01;;;;;;;;;;;;;;;21.11;26.90;99962.09;5106209;28;20082;-69
2022/04/29 12:02:34;;;;;;;6.43;4.47;;;;;;;21.02;28.50;99958.41;5104814;28;19923;-68
2022/04/29 12:05:07;;;;;;;7.50;5.38;;;;;;;20.88;28.56;99960.56;5105507;28;20040;-69
2022/04/29 12:07:41;;;;;;;6.38;5.35;;;;;;;20.86;28.96;99959.84;5104653;28;20292;-70
2022/04/29 12:10:18;;;;;;;7.05;5.28;;;;;;;20.52;28.14;99865.03;5105603;28;20044;-68
2022/04/29 12:12:55;;;;;;;5.82;4.72;;;;;;;20.25;28.04;99853.00;5105690;28;20047;-68
2022/04/29 12:15:30;;;;;;;7.15;5.10;;;;;;;20.97;28.14;99943.59;5105355;28;20044;-69
2022/04/29 12:18:06;;;;;;;5.45;4.63;;;;;;;21.11;28.37;99938.72;5104602;28;20236;-69
2022/04/29 12:20:39;;;;;;;5.78;4.05;;;;;;;21.26;27.83;99935.63;5105611;28;20097;-69